Terminal Aerodrome Forecast
Issued by NWS Topeka, KS

Home | Current Version | Previous Version | Graphics & Text | Print | Product List | Glossary On
Versions: 1 2 3 4 5 6 7 8 9 10 11 12 13 14 15 16 17
000
FTUS43 KTOP 022300
TAFTOP
TAF
KTOP 022326Z 0300/0324 14014KT P6SM SCT040
     FM030100 15012KT 6SM -DZ BR BKN020 OVC090
     FM030700 18015G24KT 4SM -DZ BR OVC009
     FM031300 22014G23KT 6SM -DZ BR BKN030 OVC120
     FM031500 25015KT P6SM SCT030
     FM032100 33017G25KT P6SM BKN030=

USA.gov is the U.S. government's official web portal to all federal, state and local government web resources and services.